sensor_id;sensor_type;location;lat;lon;timestamp;P1;durP1;ratioP1;P2;durP2;ratioP2
44981;SDS011;30716;41.740;-70.400;2022-07-06T00:01:19;0.68;;;0.20;;
44981;SDS011;30716;41.740;-70.400;2022-07-06T00:03:45;0.43;;;0.30;;
44981;SDS011;30716;41.740;-70.400;2022-07-06T00:06:12;0.60;;;0.32;;
44981;SDS011;30716;41.740;-70.400;2022-07-06T00:08:39;1.20;;;0.60;;
44981;SDS011;30716;41.740;-70.400;2022-07-06T00:11:05;0.55;;;0.30;;
44981;SDS011;30716;41.740;-70.400;2022-07-06T00:13:31;0.57;;;0.32;;
44981;SDS011;30716;41.740;-70.400;2022-07-06T00:15:58;0.90;;;0.40;;
44981;SDS011;30716;41.740;-70.400;2022-07-06T00:18:24;0.77;;;0.47;;
44981;SDS011;30716;41.740;-70.400;2022-07-06T00:20:50;1.30;;;0.50;;
44981;SDS011;30716;41.740;-70.400;2022-07-06T00:23:16;0.90;;;0.50;;
44981;SDS011;30716;41.740;-70.400;2022-07-06T00:25:43;1.33;;;0.60;;
44981;SDS011;30716;41.740;-70.400;2022-07-06T00:28:09;2.22;;;0.60;;
44981;SDS011;30716;41.740;-70.400;2022-07-06T00:30:35;0.55;;;0.40;;
44981;SDS011;30716;41.740;-70.400;2022-07-06T00:33:01;0.60;;;0.40;;
44981;SDS011;30716;41.740;-70.400;2022-07-06T00:35:27;0.25;;;0.22;;
44981;SDS011;30716;41.740;-70.400;2022-07-06T00:37:53;0.82;;;0.45;;
44981;SDS011;30716;41.740;-70.400;2022-07-06T00:40:19;0.50;;;0.40;;
44981;SDS011;30716;41.740;-70.400;2022-07-06T00:42:46;0.80;;;0.40;;
44981;SDS011;30716;41.740;-70.400;2022-07-06T00:45:14;0.63;;;0.47;;
44981;SDS011;30716;41.740;-70.400;2022-07-06T00:47:42;0.90;;;0.40;;
44981;SDS011;30716;41.740;-70.400;2022-07-06T00:50:10;0.73;;;0.40;;
44981;SDS011;30716;41.740;-70.400;2022-07-06T00:53:02;0.65;;;0.45;;
44981;SDS011;30716;41.740;-70.400;2022-07-06T00:55:29;0.80;;;0.43;;
44981;SDS011;30716;41.740;-70.400;2022-07-06T00:57:58;0.30;;;0.30;;
44981;SDS011;30716;41.740;-70.400;2022-07-06T01:00:28;0.52;;;0.40;;
44981;SDS011;30716;41.740;-70.400;2022-07-06T01:02:55;0.93;;;0.40;;
44981;SDS011;30716;41.740;-70.400;2022-07-06T01:05:21;0.95;;;0.35;;
44981;SDS011;30716;41.740;-70.400;2022-07-06T01:07:48;0.73;;;0.52;;
44981;SDS011;30716;41.740;-70.400;2022-07-06T01:10:16;0.40;;;0.30;;
44981;SDS011;30716;41.740;-70.400;2022-07-06T01:12:44;1.38;;;0.63;;
44981;SDS011;30716;41.740;-70.400;2022-07-06T01:15:15;0.60;;;0.30;;
44981;SDS011;30716;41.740;-70.400;2022-07-06T01:17:43;0.30;;;0.20;;
44981;SDS011;30716;41.740;-70.400;2022-07-06T01:22:37;0.52;;;0.28;;
44981;SDS011;30716;41.740;-70.400;2022-07-06T01:25:05;0.75;;;0.30;;
44981;SDS011;30716;41.740;-70.400;2022-07-06T01:27:33;0.88;;;0.55;;
44981;SDS011;30716;41.740;-70.400;2022-07-06T01:30:04;0.68;;;0.40;;
44981;SDS011;30716;41.740;-70.400;2022-07-06T01:32:31;0.40;;;0.20;;
44981;SDS011;30716;41.740;-70.400;2022-07-06T01:34:57;0.47;;;0.40;;
44981;SDS011;30716;41.740;-70.400;2022-07-06T01:37:23;0.28;;;0.28;;
44981;SDS011;30716;41.740;-70.400;2022-07-06T01:39:49;1.65;;;0.60;;
44981;SDS011;30716;41.740;-70.400;2022-07-06T01:42:15;0.85;;;0.40;;
44981;SDS011;30716;41.740;-70.400;2022-07-06T01:44:43;0.68;;;0.40;;
44981;SDS011;30716;41.740;-70.400;2022-07-06T01:47:10;0.50;;;0.30;;
44981;SDS011;30716;41.740;-70.400;2022-07-06T01:49:36;0.20;;;0.13;;
44981;SDS011;30716;41.740;-70.400;2022-07-06T01:52:03;0.77;;;0.40;;
44981;SDS011;30716;41.740;-70.400;2022-07-06T01:54:29;0.43;;;0.30;;
44981;SDS011;30716;41.740;-70.400;2022-07-06T01:56:55;0.65;;;0.30;;
44981;SDS011;30716;41.740;-70.400;2022-07-06T01:59:21;0.80;;;0.40;;
44981;SDS011;30716;41.740;-70.400;2022-07-06T02:01:47;0.30;;;0.20;;
44981;SDS011;30716;41.740;-70.400;2022-07-06T02:04:13;1.23;;;0.45;;
44981;SDS011;30716;41.740;-70.400;2022-07-06T02:06:39;0.60;;;0.28;;
44981;SDS011;30716;41.740;-70.400;2022-07-06T02:09:05;0.85;;;0.50;;
44981;SDS011;30716;41.740;-70.400;2022-07-06T02:11:31;0.68;;;0.47;;
44981;SDS011;30716;41.740;-70.400;2022-07-06T02:13:58;0.40;;;0.20;;
44981;SDS011;30716;41.740;-70.400;2022-07-06T02:16:24;0.40;;;0.20;;
44981;SDS011;30716;41.740;-70.400;2022-07-06T02:18:50;0.73;;;0.32;;
44981;SDS011;30716;41.740;-70.400;2022-07-06T02:21:16;0.65;;;0.30;;
44981;SDS011;30716;41.740;-70.400;2022-07-06T02:23:42;1.63;;;0.30;;
44981;SDS011;30716;41.740;-70.400;2022-07-06T02:26:09;0.35;;;0.20;;
44981;SDS011;30716;41.740;-70.400;2022-07-06T02:28:35;0.30;;;0.20;;
44981;SDS011;30716;41.740;-70.400;2022-07-06T02:31:01;0.45;;;0.30;;
44981;SDS011;30716;41.740;-70.400;2022-07-06T02:33:27;0.50;;;0.40;;
44981;SDS011;30716;41.740;-70.400;2022-07-06T02:35:53;1.10;;;0.40;;
44981;SDS011;30716;41.740;-70.400;2022-07-06T02:38:20;0.32;;;0.20;;
44981;SDS011;30716;41.740;-70.400;2022-07-06T02:40:46;0.80;;;0.40;;
44981;SDS011;30716;41.740;-70.400;2022-07-06T02:43:12;0.60;;;0.40;;
44981;SDS011;30716;41.740;-70.400;2022-07-06T02:45:39;0.25;;;0.20;;
44981;SDS011;30716;41.740;-70.400;2022-07-06T02:48:05;1.10;;;0.40;;
44981;SDS011;30716;41.740;-70.400;2022-07-06T02:50:31;0.40;;;0.30;;
44981;SDS011;30716;41.740;-70.400;2022-07-06T02:52:57;0.30;;;0.20;;
44981;SDS011;30716;41.740;-70.400;2022-07-06T02:55:23;0.47;;;0.25;;
44981;SDS011;30716;41.740;-70.400;2022-07-06T02:57:50;0.22;;;0.13;;
44981;SDS011;30716;41.740;-70.400;2022-07-06T03:00:16;0.52;;;0.35;;
44981;SDS011;30716;41.740;-70.400;2022-07-06T03:02:42;0.57;;;0.25;;
44981;SDS011;30716;41.740;-70.400;2022-07-06T03:05:08;0.70;;;0.30;;
44981;SDS011;30716;41.740;-70.400;2022-07-06T03:07:34;0.38;;;0.25;;
44981;SDS011;30716;41.740;-70.400;2022-07-06T03:10:00;0.45;;;0.17;;
44981;SDS011;30716;41.740;-70.400;2022-07-06T03:12:26;0.55;;;0.30;;
44981;SDS011;30716;41.740;-70.400;2022-07-06T03:14:53;1.27;;;0.30;;
44981;SDS011;30716;41.740;-70.400;2022-07-06T03:17:19;0.30;;;0.28;;
44981;SDS011;30716;41.740;-70.400;2022-07-06T03:19:46;1.00;;;0.30;;
44981;SDS011;30716;41.740;-70.400;2022-07-06T03:22:12;1.30;;;0.30;;
44981;SDS011;30716;41.740;-70.400;2022-07-06T03:24:38;0.77;;;0.40;;
44981;SDS011;30716;41.740;-70.400;2022-07-06T03:27:05;1.85;;;0.35;;
44981;SDS011;30716;41.740;-70.400;2022-07-06T03:29:31;0.40;;;0.22;;
44981;SDS011;30716;41.740;-70.400;2022-07-06T03:31:58;0.52;;;0.30;;
44981;SDS011;30716;41.740;-70.400;2022-07-06T03:34:24;0.40;;;0.30;;
44981;SDS011;30716;41.740;-70.400;2022-07-06T03:36:50;0.77;;;0.30;;
44981;SDS011;30716;41.740;-70.400;2022-07-06T03:39:16;0.65;;;0.20;;
44981;SDS011;30716;41.740;-70.400;2022-07-06T03:41:42;0.35;;;0.20;;
44981;SDS011;30716;41.740;-70.400;2022-07-06T03:44:08;0.40;;;0.30;;
44981;SDS011;30716;41.740;-70.400;2022-07-06T03:46:34;0.38;;;0.20;;
44981;SDS011;30716;41.740;-70.400;2022-07-06T03:49:01;0.93;;;0.40;;
44981;SDS011;30716;41.740;-70.400;2022-07-06T03:51:27;0.35;;;0.28;;
44981;SDS011;30716;41.740;-70.400;2022-07-06T03:53:53;0.60;;;0.30;;
44981;SDS011;30716;41.740;-70.400;2022-07-06T03:56:19;1.23;;;0.40;;
44981;SDS011;30716;41.740;-70.400;2022-07-06T03:58:54;0.52;;;0.28;;
44981;SDS011;30716;41.740;-70.400;2022-07-06T04:01:25;0.57;;;0.35;;
44981;SDS011;30716;41.740;-70.400;2022-07-06T04:03:51;0.73;;;0.30;;
44981;SDS011;30716;41.740;-70.400;2022-07-06T04:06:18;0.85;;;0.20;;
44981;SDS011;30716;41.740;-70.400;2022-07-06T04:08:44;0.73;;;0.30;;
44981;SDS011;30716;41.740;-70.400;2022-07-06T04:11:10;0.55;;;0.28;;
44981;SDS011;30716;41.740;-70.400;2022-07-06T04:13:36;0.20;;;0.20;;
44981;SDS011;30716;41.740;-70.400;2022-07-06T04:16:04;0.43;;;0.20;;
44981;SDS011;30716;41.740;-70.400;2022-07-06T04:18:31;0.50;;;0.30;;
44981;SDS011;30716;41.740;-70.400;2022-07-06T04:20:57;0.55;;;0.30;;
44981;SDS011;30716;41.740;-70.400;2022-07-06T04:23:24;0.80;;;0.40;;
44981;SDS011;30716;41.740;-70.400;2022-07-06T04:25:50;0.88;;;0.20;;
44981;SDS011;30716;41.740;-70.400;2022-07-06T04:28:16;0.73;;;0.28;;
44981;SDS011;30716;41.740;-70.400;2022-07-06T04:30:42;0.30;;;0.20;;
44981;SDS011;30716;41.740;-70.400;2022-07-06T04:33:08;0.30;;;0.20;;
44981;SDS011;30716;41.740;-70.400;2022-07-06T04:35:35;0.47;;;0.25;;
44981;SDS011;30716;41.740;-70.400;2022-07-06T04:38:01;0.52;;;0.30;;
44981;SDS011;30716;41.740;-70.400;2022-07-06T04:40:27;0.32;;;0.20;;
44981;SDS011;30716;41.740;-70.400;2022-07-06T04:42:53;0.57;;;0.30;;
44981;SDS011;30716;41.740;-70.400;2022-07-06T04:45:19;1.02;;;0.30;;
44981;SDS011;30716;41.740;-70.400;2022-07-06T04:47:45;0.50;;;0.35;;
44981;SDS011;30716;41.740;-70.400;2022-07-06T04:50:12;0.45;;;0.38;;
44981;SDS011;30716;41.740;-70.400;2022-07-06T04:52:38;0.15;;;0.13;;
44981;SDS011;30716;41.740;-70.400;2022-07-06T04:55:04;0.90;;;0.40;;
44981;SDS011;30716;41.740;-70.400;2022-07-06T04:57:31;0.30;;;0.30;;
44981;SDS011;30716;41.740;-70.400;2022-07-06T04:59:57;0.45;;;0.30;;
44981;SDS011;30716;41.740;-70.400;2022-07-06T05:02:24;0.57;;;0.45;;
44981;SDS011;30716;41.740;-70.400;2022-07-06T05:04:50;1.30;;;0.73;;
44981;SDS011;30716;41.740;-70.400;2022-07-06T05:07:16;0.50;;;0.30;;
44981;SDS011;30716;41.740;-70.400;2022-07-06T05:09:43;0.80;;;0.30;;
44981;SDS011;30716;41.740;-70.400;2022-07-06T05:12:09;0.47;;;0.32;;
44981;SDS011;30716;41.740;-70.400;2022-07-06T05:14:35;0.30;;;0.20;;
44981;SDS011;30716;41.740;-70.400;2022-07-06T05:17:02;0.55;;;0.28;;
44981;SDS011;30716;41.740;-70.400;2022-07-06T05:19:28;0.38;;;0.20;;
44981;SDS011;30716;41.740;-70.400;2022-07-06T05:21:55;0.43;;;0.30;;
44981;SDS011;30716;41.740;-70.400;2022-07-06T05:24:21;0.60;;;0.30;;
44981;SDS011;30716;41.740;-70.400;2022-07-06T05:26:47;0.35;;;0.20;;
44981;SDS011;30716;41.740;-70.400;2022-07-06T05:29:13;0.55;;;0.43;;
44981;SDS011;30716;41.740;-70.400;2022-07-06T05:31:39;0.40;;;0.20;;
44981;SDS011;30716;41.740;-70.400;2022-07-06T05:34:05;0.38;;;0.30;;
44981;SDS011;30716;41.740;-70.400;2022-07-06T05:36:31;0.82;;;0.40;;
44981;SDS011;30716;41.740;-70.400;2022-07-06T05:38:57;0.32;;;0.30;;
44981;SDS011;30716;41.740;-70.400;2022-07-06T05:41:24;0.45;;;0.15;;
44981;SDS011;30716;41.740;-70.400;2022-07-06T05:43:50;0.40;;;0.20;;
44981;SDS011;30716;41.740;-70.400;2022-07-06T05:46:16;0.20;;;0.20;;
44981;SDS011;30716;41.740;-70.400;2022-07-06T05:48:42;0.10;;;0.10;;
44981;SDS011;30716;41.740;-70.400;2022-07-06T05:51:26;0.63;;;0.30;;
44981;SDS011;30716;41.740;-70.400;2022-07-06T05:53:52;0.40;;;0.30;;
44981;SDS011;30716;41.740;-70.400;2022-07-06T05:56:18;0.68;;;0.40;;
44981;SDS011;30716;41.740;-70.400;2022-07-06T05:58:44;0.45;;;0.20;;
44981;SDS011;30716;41.740;-70.400;2022-07-06T06:01:11;0.88;;;0.30;;
44981;SDS011;30716;41.740;-70.400;2022-07-06T06:03:38;0.30;;;0.20;;
44981;SDS011;30716;41.740;-70.400;2022-07-06T06:06:04;0.40;;;0.20;;
44981;SDS011;30716;41.740;-70.400;2022-07-06T06:08:30;0.55;;;0.32;;
44981;SDS011;30716;41.740;-70.400;2022-07-06T06:10:56;0.63;;;0.30;;
44981;SDS011;30716;41.740;-70.400;2022-07-06T06:13:22;1.08;;;0.35;;
44981;SDS011;30716;41.740;-70.400;2022-07-06T06:15:48;0.50;;;0.20;;
44981;SDS011;30716;41.740;-70.400;2022-07-06T06:18:14;0.43;;;0.20;;
44981;SDS011;30716;41.740;-70.400;2022-07-06T06:20:44;0.80;;;0.40;;
44981;SDS011;30716;41.740;-70.400;2022-07-06T06:23:11;0.40;;;0.22;;
44981;SDS011;30716;41.740;-70.400;2022-07-06T06:25:37;0.85;;;0.20;;
44981;SDS011;30716;41.740;-70.400;2022-07-06T06:28:05;0.57;;;0.28;;
44981;SDS011;30716;41.740;-70.400;2022-07-06T06:30:33;0.73;;;0.20;;
44981;SDS011;30716;41.740;-70.400;2022-07-06T06:33:10;1.55;;;0.30;;
44981;SDS011;30716;41.740;-70.400;2022-07-06T06:35:37;0.88;;;0.30;;
44981;SDS011;30716;41.740;-70.400;2022-07-06T06:38:07;0.43;;;0.22;;
44981;SDS011;30716;41.740;-70.400;2022-07-06T06:40:33;0.35;;;0.30;;
44981;SDS011;30716;41.740;-70.400;2022-07-06T06:42:59;0.70;;;0.40;;
44981;SDS011;30716;41.740;-70.400;2022-07-06T06:45:25;0.85;;;0.28;;
44981;SDS011;30716;41.740;-70.400;2022-07-06T06:47:51;0.20;;;0.20;;
44981;SDS011;30716;41.740;-70.400;2022-07-06T06:50:18;1.08;;;0.32;;
44981;SDS011;30716;41.740;-70.400;2022-07-06T06:52:44;0.20;;;0.20;;
44981;SDS011;30716;41.740;-70.400;2022-07-06T06:55:10;0.32;;;0.20;;
44981;SDS011;30716;41.740;-70.400;2022-07-06T06:57:36;0.25;;;0.20;;
44981;SDS011;30716;41.740;-70.400;2022-07-06T07:00:03;0.65;;;0.35;;
44981;SDS011;30716;41.740;-70.400;2022-07-06T07:02:30;0.40;;;0.20;;
44981;SDS011;30716;41.740;-70.400;2022-07-06T07:04:56;1.00;;;0.32;;
44981;SDS011;30716;41.740;-70.400;2022-07-06T07:07:22;0.80;;;0.45;;
44981;SDS011;30716;41.740;-70.400;2022-07-06T07:09:48;0.13;;;0.13;;
44981;SDS011;30716;41.740;-70.400;2022-07-06T07:12:14;0.70;;;0.30;;
44981;SDS011;30716;41.740;-70.400;2022-07-06T07:14:42;0.80;;;0.13;;
44981;SDS011;30716;41.740;-70.400;2022-07-06T07:17:09;0.50;;;0.25;;
44981;SDS011;30716;41.740;-70.400;2022-07-06T07:19:36;0.43;;;0.28;;
44981;SDS011;30716;41.740;-70.400;2022-07-06T07:22:03;0.40;;;0.20;;
44981;SDS011;30716;41.740;-70.400;2022-07-06T07:24:29;0.22;;;0.10;;
44981;SDS011;30716;41.740;-70.400;2022-07-06T07:26:55;0.50;;;0.22;;
44981;SDS011;30716;41.740;-70.400;2022-07-06T07:29:21;0.40;;;0.30;;
44981;SDS011;30716;41.740;-70.400;2022-07-06T07:31:48;0.40;;;0.20;;
44981;SDS011;30716;41.740;-70.400;2022-07-06T07:34:14;0.40;;;0.40;;
44981;SDS011;30716;41.740;-70.400;2022-07-06T07:36:40;0.73;;;0.35;;
44981;SDS011;30716;41.740;-70.400;2022-07-06T07:39:06;0.45;;;0.20;;
44981;SDS011;30716;41.740;-70.400;2022-07-06T07:41:32;0.30;;;0.20;;
44981;SDS011;30716;41.740;-70.400;2022-07-06T07:43:58;0.52;;;0.32;;
44981;SDS011;30716;41.740;-70.400;2022-07-06T07:46:24;0.70;;;0.38;;
44981;SDS011;30716;41.740;-70.400;2022-07-06T07:48:50;0.63;;;0.50;;
44981;SDS011;30716;41.740;-70.400;2022-07-06T07:51:16;0.68;;;0.30;;
44981;SDS011;30716;41.740;-70.400;2022-07-06T07:53:43;0.90;;;0.35;;
44981;SDS011;30716;41.740;-70.400;2022-07-06T07:56:10;0.63;;;0.32;;
44981;SDS011;30716;41.740;-70.400;2022-07-06T07:58:36;0.98;;;0.30;;
44981;SDS011;30716;41.740;-70.400;2022-07-06T08:01:02;1.13;;;0.40;;
44981;SDS011;30716;41.740;-70.400;2022-07-06T08:03:29;0.30;;;0.30;;
44981;SDS011;30716;41.740;-70.400;2022-07-06T08:05:57;1.20;;;0.40;;
44981;SDS011;30716;41.740;-70.400;2022-07-06T08:08:23;0.98;;;0.35;;
44981;SDS011;30716;41.740;-70.400;2022-07-06T08:10:49;0.80;;;0.30;;
44981;SDS011;30716;41.740;-70.400;2022-07-06T08:13:15;0.50;;;0.25;;
44981;SDS011;30716;41.740;-70.400;2022-07-06T08:15:42;0.30;;;0.20;;
44981;SDS011;30716;41.740;-70.400;2022-07-06T08:18:08;0.30;;;0.20;;
44981;SDS011;30716;41.740;-70.400;2022-07-06T08:20:37;0.60;;;0.30;;
44981;SDS011;30716;41.740;-70.400;2022-07-06T08:23:03;0.40;;;0.30;;
44981;SDS011;30716;41.740;-70.400;2022-07-06T08:25:30;0.20;;;0.20;;
44981;SDS011;30716;41.740;-70.400;2022-07-06T08:27:57;0.68;;;0.30;;
44981;SDS011;30716;41.740;-70.400;2022-07-06T08:30:23;0.82;;;0.20;;
44981;SDS011;30716;41.740;-70.400;2022-07-06T08:32:49;0.40;;;0.30;;
44981;SDS011;30716;41.740;-70.400;2022-07-06T08:35:15;0.22;;;0.17;;
44981;SDS011;30716;41.740;-70.400;2022-07-06T08:37:41;0.20;;;0.20;;
44981;SDS011;30716;41.740;-70.400;2022-07-06T08:40:08;0.88;;;0.65;;
44981;SDS011;30716;41.740;-70.400;2022-07-06T08:42:35;0.82;;;0.35;;
44981;SDS011;30716;41.740;-70.400;2022-07-06T08:45:02;0.50;;;0.30;;
44981;SDS011;30716;41.740;-70.400;2022-07-06T08:47:30;0.50;;;0.30;;
44981;SDS011;30716;41.740;-70.400;2022-07-06T08:49:57;0.35;;;0.20;;
44981;SDS011;30716;41.740;-70.400;2022-07-06T08:52:23;0.70;;;0.40;;
44981;SDS011;30716;41.740;-70.400;2022-07-06T08:54:50;1.13;;;0.40;;
44981;SDS011;30716;41.740;-70.400;2022-07-06T08:57:17;0.52;;;0.20;;
44981;SDS011;30716;41.740;-70.400;2022-07-06T08:59:43;0.52;;;0.30;;
44981;SDS011;30716;41.740;-70.400;2022-07-06T09:02:10;1.17;;;0.40;;
44981;SDS011;30716;41.740;-70.400;2022-07-06T09:04:37;0.52;;;0.40;;
44981;SDS011;30716;41.740;-70.400;2022-07-06T09:07:03;0.80;;;0.30;;
44981;SDS011;30716;41.740;-70.400;2022-07-06T09:09:30;0.63;;;0.30;;
44981;SDS011;30716;41.740;-70.400;2022-07-06T09:11:58;1.27;;;0.52;;
44981;SDS011;30716;41.740;-70.400;2022-07-06T09:14:24;1.17;;;0.30;;
44981;SDS011;30716;41.740;-70.400;2022-07-06T09:17:04;0.38;;;0.30;;
44981;SDS011;30716;41.740;-70.400;2022-07-06T09:19:32;1.25;;;0.40;;
44981;SDS011;30716;41.740;-70.400;2022-07-06T09:21:59;1.67;;;0.40;;
44981;SDS011;30716;41.740;-70.400;2022-07-06T09:24:26;0.20;;;0.15;;
44981;SDS011;30716;41.740;-70.400;2022-07-06T09:26:56;0.82;;;0.38;;
44981;SDS011;30716;41.740;-70.400;2022-07-06T09:29:27;0.32;;;0.28;;
44981;SDS011;30716;41.740;-70.400;2022-07-06T09:34:24;0.20;;;0.20;;
44981;SDS011;30716;41.740;-70.400;2022-07-06T09:37:05;0.65;;;0.40;;
44981;SDS011;30716;41.740;-70.400;2022-07-06T09:39:31;0.55;;;0.20;;
44981;SDS011;30716;41.740;-70.400;2022-07-06T09:41:58;0.55;;;0.40;;
44981;SDS011;30716;41.740;-70.400;2022-07-06T09:46:55;0.80;;;0.70;;
44981;SDS011;30716;41.740;-70.400;2022-07-06T09:49:22;0.82;;;0.40;;
44981;SDS011;30716;41.740;-70.400;2022-07-06T09:51:50;1.23;;;0.60;;
44981;SDS011;30716;41.740;-70.400;2022-07-06T09:54:18;0.93;;;0.40;;
44981;SDS011;30716;41.740;-70.400;2022-07-06T09:56:45;0.80;;;0.43;;
44981;SDS011;30716;41.740;-70.400;2022-07-06T09:59:22;1.23;;;0.50;;
44981;SDS011;30716;41.740;-70.400;2022-07-06T10:01:53;0.75;;;0.30;;
44981;SDS011;30716;41.740;-70.400;2022-07-06T10:04:22;1.95;;;0.63;;
44981;SDS011;30716;41.740;-70.400;2022-07-06T10:06:49;1.15;;;0.47;;
44981;SDS011;30716;41.740;-70.400;2022-07-06T10:09:15;0.50;;;0.20;;
44981;SDS011;30716;41.740;-70.400;2022-07-06T10:11:56;1.02;;;0.40;;
44981;SDS011;30716;41.740;-70.400;2022-07-06T10:14:24;1.70;;;0.63;;
44981;SDS011;30716;41.740;-70.400;2022-07-06T10:16:57;1.13;;;0.80;;
44981;SDS011;30716;41.740;-70.400;2022-07-06T10:19:25;0.60;;;0.40;;
44981;SDS011;30716;41.740;-70.400;2022-07-06T10:21:52;0.70;;;0.40;;
44981;SDS011;30716;41.740;-70.400;2022-07-06T10:24:21;0.88;;;0.50;;
44981;SDS011;30716;41.740;-70.400;2022-07-06T10:26:47;0.70;;;0.38;;
44981;SDS011;30716;41.740;-70.400;2022-07-06T10:29:14;1.05;;;0.65;;
44981;SDS011;30716;41.740;-70.400;2022-07-06T10:31:42;1.73;;;0.40;;
44981;SDS011;30716;41.740;-70.400;2022-07-06T10:34:11;0.93;;;0.50;;
44981;SDS011;30716;41.740;-70.400;2022-07-06T10:36:39;1.08;;;0.45;;
44981;SDS011;30716;41.740;-70.400;2022-07-06T10:39:06;0.60;;;0.50;;
44981;SDS011;30716;41.740;-70.400;2022-07-06T10:41:52;1.27;;;0.55;;
44981;SDS011;30716;41.740;-70.400;2022-07-06T10:44:22;1.08;;;0.70;;
44981;SDS011;30716;41.740;-70.400;2022-07-06T10:46:54;1.35;;;0.63;;
44981;SDS011;30716;41.740;-70.400;2022-07-06T10:49:22;1.55;;;0.60;;
44981;SDS011;30716;41.740;-70.400;2022-07-06T10:51:50;1.60;;;0.68;;
44981;SDS011;30716;41.740;-70.400;2022-07-06T10:54:17;2.33;;;0.75;;
44981;SDS011;30716;41.740;-70.400;2022-07-06T10:56:46;1.25;;;0.70;;
44981;SDS011;30716;41.740;-70.400;2022-07-06T10:59:17;0.95;;;0.52;;
44981;SDS011;30716;41.740;-70.400;2022-07-06T11:04:43;1.00;;;0.55;;
44981;SDS011;30716;41.740;-70.400;2022-07-06T11:07:11;1.02;;;0.60;;
44981;SDS011;30716;41.740;-70.400;2022-07-06T11:09:58;2.55;;;0.70;;
44981;SDS011;30716;41.740;-70.400;2022-07-06T11:12:25;1.27;;;0.60;;
44981;SDS011;30716;41.740;-70.400;2022-07-06T11:14:51;1.00;;;0.60;;
44981;SDS011;30716;41.740;-70.400;2022-07-06T11:17:18;0.95;;;0.73;;
44981;SDS011;30716;41.740;-70.400;2022-07-06T11:19:48;1.55;;;0.80;;
44981;SDS011;30716;41.740;-70.400;2022-07-06T11:22:16;0.95;;;0.75;;
44981;SDS011;30716;41.740;-70.400;2022-07-06T11:24:44;1.13;;;0.60;;
44981;SDS011;30716;41.740;-70.400;2022-07-06T11:27:10;0.80;;;0.50;;
44981;SDS011;30716;41.740;-70.400;2022-07-06T11:29:37;0.88;;;0.60;;
44981;SDS011;30716;41.740;-70.400;2022-07-06T11:32:04;1.98;;;0.70;;
44981;SDS011;30716;41.740;-70.400;2022-07-06T11:34:35;1.20;;;0.70;;
44981;SDS011;30716;41.740;-70.400;2022-07-06T11:37:09;2.05;;;0.77;;
44981;SDS011;30716;41.740;-70.400;2022-07-06T11:39:39;1.20;;;0.50;;
44981;SDS011;30716;41.740;-70.400;2022-07-06T11:44:36;1.02;;;0.60;;
44981;SDS011;30716;41.740;-70.400;2022-07-06T11:47:03;2.55;;;0.70;;
44981;SDS011;30716;41.740;-70.400;2022-07-06T11:49:30;1.27;;;0.90;;
44981;SDS011;30716;41.740;-70.400;2022-07-06T11:51:57;2.17;;;0.70;;
44981;SDS011;30716;41.740;-70.400;2022-07-06T11:54:24;1.42;;;0.80;;
44981;SDS011;30716;41.740;-70.400;2022-07-06T11:56:51;1.48;;;0.80;;
44981;SDS011;30716;41.740;-70.400;2022-07-06T11:59:20;1.83;;;0.90;;
44981;SDS011;30716;41.740;-70.400;2022-07-06T12:04:31;2.25;;;1.10;;
44981;SDS011;30716;41.740;-70.400;2022-07-06T12:07:05;1.70;;;1.00;;
44981;SDS011;30716;41.740;-70.400;2022-07-06T12:09:40;2.10;;;1.08;;
44981;SDS011;30716;41.740;-70.400;2022-07-06T12:12:09;2.03;;;0.90;;
44981;SDS011;30716;41.740;-70.400;2022-07-06T12:14:37;1.92;;;0.80;;
44981;SDS011;30716;41.740;-70.400;2022-07-06T12:17:05;0.85;;;0.60;;
44981;SDS011;30716;41.740;-70.400;2022-07-06T12:19:33;1.50;;;0.80;;
44981;SDS011;30716;41.740;-70.400;2022-07-06T12:22:00;1.83;;;0.85;;
44981;SDS011;30716;41.740;-70.400;2022-07-06T12:24:28;1.02;;;0.60;;
44981;SDS011;30716;41.740;-70.400;2022-07-06T12:26:56;1.75;;;0.93;;
44981;SDS011;30716;41.740;-70.400;2022-07-06T12:29:23;2.28;;;1.00;;
44981;SDS011;30716;41.740;-70.400;2022-07-06T12:31:53;1.63;;;0.80;;
44981;SDS011;30716;41.740;-70.400;2022-07-06T12:34:24;1.88;;;0.90;;
44981;SDS011;30716;41.740;-70.400;2022-07-06T12:36:53;2.17;;;1.00;;
44981;SDS011;30716;41.740;-70.400;2022-07-06T12:39:21;1.40;;;0.73;;
44981;SDS011;30716;41.740;-70.400;2022-07-06T12:41:53;1.42;;;0.73;;
44981;SDS011;30716;41.740;-70.400;2022-07-06T12:44:22;2.47;;;1.23;;
44981;SDS011;30716;41.740;-70.400;2022-07-06T12:46:51;2.10;;;1.20;;
44981;SDS011;30716;41.740;-70.400;2022-07-06T12:49:26;1.42;;;0.82;;
44981;SDS011;30716;41.740;-70.400;2022-07-06T12:54:19;1.33;;;0.80;;
44981;SDS011;30716;41.740;-70.400;2022-07-06T12:59:37;1.60;;;0.90;;
44981;SDS011;30716;41.740;-70.400;2022-07-06T13:02:09;1.70;;;0.95;;
44981;SDS011;30716;41.740;-70.400;2022-07-06T13:04:43;2.20;;;1.10;;
44981;SDS011;30716;41.740;-70.400;2022-07-06T13:07:17;2.55;;;1.33;;
44981;SDS011;30716;41.740;-70.400;2022-07-06T13:09:46;2.15;;;1.15;;
44981;SDS011;30716;41.740;-70.400;2022-07-06T13:12:13;1.40;;;1.10;;
44981;SDS011;30716;41.740;-70.400;2022-07-06T13:14:39;1.92;;;1.00;;
44981;SDS011;30716;41.740;-70.400;2022-07-06T13:17:05;2.00;;;1.05;;
44981;SDS011;30716;41.740;-70.400;2022-07-06T13:19:31;1.48;;;1.00;;
44981;SDS011;30716;41.740;-70.400;2022-07-06T13:21:57;2.08;;;1.08;;
44981;SDS011;30716;41.740;-70.400;2022-07-06T13:24:23;2.33;;;1.50;;
44981;SDS011;30716;41.740;-70.400;2022-07-06T13:26:50;2.97;;;1.10;;
44981;SDS011;30716;41.740;-70.400;2022-07-06T13:29:16;1.67;;;1.13;;
44981;SDS011;30716;41.740;-70.400;2022-07-06T13:31:42;1.33;;;1.10;;
44981;SDS011;30716;41.740;-70.400;2022-07-06T13:34:08;1.95;;;1.10;;
44981;SDS011;30716;41.740;-70.400;2022-07-06T13:36:34;2.03;;;1.00;;
44981;SDS011;30716;41.740;-70.400;2022-07-06T13:39:01;1.92;;;1.05;;
44981;SDS011;30716;41.740;-70.400;2022-07-06T13:41:28;1.90;;;1.10;;
44981;SDS011;30716;41.740;-70.400;2022-07-06T13:43:54;2.40;;;1.25;;
44981;SDS011;30716;41.740;-70.400;2022-07-06T13:46:20;2.10;;;1.10;;
44981;SDS011;30716;41.740;-70.400;2022-07-06T13:48:47;2.03;;;1.10;;
44981;SDS011;30716;41.740;-70.400;2022-07-06T13:51:13;1.52;;;0.90;;
44981;SDS011;30716;41.740;-70.400;2022-07-06T13:53:39;1.58;;;1.10;;
44981;SDS011;30716;41.740;-70.400;2022-07-06T13:56:05;1.85;;;1.20;;
44981;SDS011;30716;41.740;-70.400;2022-07-06T13:58:33;1.67;;;1.02;;
44981;SDS011;30716;41.740;-70.400;2022-07-06T14:01:00;1.75;;;1.00;;
44981;SDS011;30716;41.740;-70.400;2022-07-06T14:03:26;2.00;;;1.25;;
44981;SDS011;30716;41.740;-70.400;2022-07-06T14:05:55;1.77;;;1.30;;
44981;SDS011;30716;41.740;-70.400;2022-07-06T14:08:23;1.92;;;0.90;;
44981;SDS011;30716;41.740;-70.400;2022-07-06T14:10:49;1.85;;;1.20;;
44981;SDS011;30716;41.740;-70.400;2022-07-06T14:13:15;1.85;;;1.13;;
44981;SDS011;30716;41.740;-70.400;2022-07-06T14:15:42;0.95;;;0.57;;
44981;SDS011;30716;41.740;-70.400;2022-07-06T14:18:08;1.50;;;1.00;;
44981;SDS011;30716;41.740;-70.400;2022-07-06T14:20:34;1.58;;;1.02;;
44981;SDS011;30716;41.740;-70.400;2022-07-06T14:23:00;1.40;;;0.95;;
44981;SDS011;30716;41.740;-70.400;2022-07-06T14:25:27;2.65;;;1.08;;
44981;SDS011;30716;41.740;-70.400;2022-07-06T14:27:53;1.83;;;1.20;;
44981;SDS011;30716;41.740;-70.400;2022-07-06T14:30:19;1.88;;;1.23;;
44981;SDS011;30716;41.740;-70.400;2022-07-06T14:32:45;2.13;;;1.30;;
44981;SDS011;30716;41.740;-70.400;2022-07-06T14:35:11;2.30;;;1.20;;
44981;SDS011;30716;41.740;-70.400;2022-07-06T14:37:38;2.47;;;1.13;;
44981;SDS011;30716;41.740;-70.400;2022-07-06T14:40:04;1.63;;;1.00;;
44981;SDS011;30716;41.740;-70.400;2022-07-06T14:42:31;1.70;;;1.02;;